Главная страница
METAR-TAF:

METAR-TAF

Аэропорты :

Трабзон, Турция

широта: 41-00N, долгота: 039-43E, высота над уровнем моря: 35 м

Текущие метеонаблюдения

Эта сводка был подготовлена 44 минут назад, в 16:20 UTC
Ветер 5 Узел от восточно-юго-восточный
Температура 24°C
Влажность 83%
Давление 1011 hPa
Видимость 10 км и более
Отдельные облака на высоте 3500 фута

METAR: LTCG 191620Z 12005KT 9999 SCT035 24/21 Q1011 NOSIG RMK RWY29 15004KT

Время: 20:04 (17:04 UTC)

Прогноз

Эта сводка был подготовлена 6 часа и 24 минут назад, в 10:40 UTC
Прогноз действительный с 19-го 12 UTC до 20-го 12 UTC
Ветер 7 Узел от восточно-северо-восточный
Видимость 10 км и более
Отдельные облака на высоте 3500 фута
Вероятность 30%
С 19-го 18 UTC до 19-го 22 UTC
Рассеянная облачность на высоте 1800 фута

TAF: LTCG 191040Z 1912/2012 06007KT 9999 SCT035 PROB30 1918/1922 BKN018

Метеонаблюдения и прогнозы для более 4000 аэропортов (сводки METAR и TAF).

Имеющиеся станции представлены на карте желтыми и красными точками.

Чтобы увидеть название станции, наведите на нее мышь.

Затем щелкните, чтобы увидеть метеонаблюдения и метеопрогнозы.

Управление картой: чтобы увеличить масштаб, щелкните зеленые кнопки с черным крестиком; чтобы уменьшить масштаб, щелкните зеленую кнопку с тире; для просмотра соседних карт щелкайте зеленые стрелки.


METAR-TAF: